x

Point Arguello, Ca (ptgc1) Weather Station

4:00pm - Sat 18th Apr 2015 All times are PDT. -7 hours from GMT.

  • Wind
    23mph, 24mph gusts
  • Air Temp 52°f
  • Sea Pressure 1015.5mb
  • Point Arguello, Ca
  • Point Arguello, Ca

More Historic Weather Station data

Upgrade to MSW Pro to gain access to the past 30 days of data for over 8000 Wavebouys and Weather Stations around the globe.

Join Pro

Comparision Forecast

View Surf forecast
   
Sat 04/18 4:00pm 23 24 mph 1015.5mb 52f
3:00pm 21 23 mph 1015.8mb 52f
2:00pm 20 21 mph 1016.7mb 52f
1:00pm 21 22 mph 1016.8mb 51f
12:00pm 21 22 mph 1017.5mb 51f
11:00am 23 25 mph 1017.3mb 50f
10:00am 24 25 mph 1016.8mb 50f
9:00am 24 26 mph 1016.7mb 50f
8:00am 24 26 mph 1016.6mb 50f
7:00am 26 29 mph 1016.3mb 50f
6:00am 28 30 mph 1016.3mb 51f
5:00am 25 26 mph 1016.5mb 52f
4:00am 22 24 mph 1016.6mb 52f
3:00am 24 26 mph 1016.7mb 53f
2:00am 20 21 mph 1017.1mb 53f
1:00am 20 21 mph 1017.6mb 54f
12:00am 16 17 mph 1018mb 54f
Fri 04/17 11:00pm 17 18 mph 1017.8mb 55f
10:00pm 21 23 mph 1017.6mb 56f
9:00pm 17 18 mph 1017.3mb 55f
8:00pm 17 18 mph 1016.9mb 57f
7:00pm 16 17 mph 1016.9mb 58f
6:00pm 16
mph
1016.8mb 57f
5:00pm 15 16 mph 1017mb 56f
4:00pm 13
mph
1017.3mb 58f
3:00pm 7
mph
1017.9mb 59f
2:00pm 7 8 mph 1018.3mb 60f
1:00pm 6 7 mph 1018.7mb 59f
12:00pm 8 10 mph 1019mb 60f
11:00am 9 10 mph 1018.9mb 60f
10:00am 3
mph
1018.4mb 60f
9:00am 3 5 mph 1017.7mb 58f
8:00am  -  mph 1017.3mb 63f
7:00am 2 3 mph 1016.9mb 63f
6:00am 2 3 mph 1016.8mb 61f
5:00am  -  2 mph 1016.6mb 63f
4:00am  -  mph 1016.6mb 66f
3:00am 2
mph
1016.8mb 68f
2:00am 2 3 mph 1017.2mb 68f
1:00am 2
mph
1017.5mb 62f
12:00am 2
mph
1017.7mb 62f
Thu 04/16 11:00pm 3
mph
1017.6mb 64f
10:00pm 6
mph
1017.6mb 64f
9:00pm 5 6 mph 1017.2mb 64f
8:00pm 6 7 mph 1016.4mb 60f
7:00pm 9 13 mph 1015.6mb 67f
6:00pm 13 17 mph 1014.9mb 67f
5:00pm 16 18 mph 1015.1mb 65f
4:00pm 17 20 mph 1015.5mb 62f
3:00pm 17 18 mph 1016mb 61f
2:00pm 6 9 mph 1016.2mb 64f
1:00pm 5 6 mph 1016.5mb 56f
12:00pm 1 3 mph 1016.9mb 62f
11:00am 2 3 mph 1017mb 62f
10:00am  -  1 mph 1016.4mb 60f
9:00am  -  1 mph 1015.8mb 57f
8:00am 2 3 mph 1015.2mb 59f
7:00am 5
mph
1014.6mb 57f
6:00am  -  1 mph 1013.8mb 59f
5:00am  -  1 mph 1013.1mb 61f
4:00am 14 15 mph 1013mb 57f
3:00am 15 17 mph 1013.2mb 61f
2:00am 11 13 mph 1014.2mb 51f
1:00am 7 8 mph 1015.1mb 51f
12:00am 9 10 mph 1015.3mb 52f
Wed 04/15 11:00pm 10 13 mph 1015.5mb 52f
10:00pm 14 16 mph 1015.4mb 53f
9:00pm 16 18 mph 1015.2mb 53f
8:00pm 25 31 mph 1014mb 54f
7:00pm 26 29 mph 1013.7mb 55f
6:00pm 26 30 mph 1014.1mb 55f
5:00pm 25 29 mph 1014.5mb 55f
4:00pm 23 25 mph 1015mb 55f
3:00pm 22 24 mph 1015.5mb 55f
2:00pm 17 23 mph 1016.2mb 56f
1:00pm 14 16 mph 1016.8mb 55f
12:00pm 13 14 mph 1017.1mb 55f
11:00am 18 21 mph 1017.3mb 54f
10:00am 23 26 mph 1017.1mb 54f
9:00am 29 31 mph 1016.4mb 54f
8:00am 37 40 mph 1015.9mb 55f
7:00am 36 39 mph 1015.4mb 54f
6:00am 36 39 mph 1014.8mb 53f
5:00am 37 39 mph 1014.9mb 53f
4:00am 40 45 mph 1015.4mb 54f
3:00am 40 44 mph 1015.6mb 54f
2:00am 37 40 mph 1016.6mb 54f
1:00am 32 36 mph 1017.2mb 53f